Time;durP1;ratioP1;P1;durP2;ratioP2;P2;SDS_P1;SDS_P2;PMS_P1;PMS_P2;Temp;Humidity;BMP_temperature;BMP_pressure;BME280_temperature;BME280_humidity;BME280_pressure;Samples;Min_cycle;Max_cycle;Signal;HPM_P1;HPM_P2
2021/05/11 00:02:08;;;;;;;2.92;1.50;;;;;;;16.11;47.80;96343.73;1820142;77;22291;-81
2021/05/11 00:04:45;;;;;;;2.67;1.72;;;;;;;15.96;47.78;96343.28;1795501;77;28008;-81
2021/05/11 00:07:22;;;;;;;3.45;1.70;;;;;;;15.96;47.86;96347.20;1807351;78;28163;-81
2021/05/11 00:09:59;;;;;;;3.67;1.55;;;;;;;15.92;48.25;96348.13;1781906;79;22185;-81
2021/05/11 00:12:36;;;;;;;2.72;1.57;;;;;;;15.75;48.55;96343.94;1820569;78;22366;-81
2021/05/11 00:15:15;;;;;;;2.70;2.30;;;;;;;15.54;49.07;96340.37;1757079;79;22606;-81
2021/05/11 00:17:52;;;;;;;2.02;1.40;;;;;;;15.41;49.41;96339.16;1827157;77;22374;-81
2021/05/11 00:20:29;;;;;;;2.85;1.42;;;;;;;15.28;49.56;96338.73;1787960;77;22198;-81
2021/05/11 00:23:06;;;;;;;6.05;1.80;;;;;;;15.20;49.88;96328.03;1803179;77;22327;-81
2021/05/11 00:25:42;;;;;;;3.80;1.80;;;;;;;15.13;50.22;96330.38;1807808;77;28286;-81
2021/05/11 00:28:18;;;;;;;3.45;1.60;;;;;;;15.16;50.17;96333.39;1806119;77;22902;-81
2021/05/11 00:30:54;;;;;;;3.07;1.77;;;;;;;15.07;50.79;96335.16;1810620;76;38455;-81
2021/05/11 00:33:28;;;;;;;2.45;1.60;;;;;;;15.04;51.10;96329.84;1770567;79;22455;-81
2021/05/11 00:36:01;;;;;;;3.05;1.40;;;;;;;14.95;51.04;96327.97;1781465;79;22427;-81
2021/05/11 00:38:35;;;;;;;2.37;1.57;;;;;;;14.88;50.97;96329.83;1817815;78;22719;-81
2021/05/11 00:41:09;;;;;;;2.27;1.55;;;;;;;14.87;51.33;96322.20;1802443;77;22279;-81
2021/05/11 00:43:46;;;;;;;2.33;1.90;;;;;;;14.87;51.73;96323.50;1789346;77;22179;-81
2021/05/11 00:46:22;;;;;;;3.25;1.52;;;;;;;14.80;50.49;96310.95;1802471;77;22210;-81
2021/05/11 00:49:01;;;;;;;1.80;1.42;;;;;;;14.92;51.63;96308.77;1790958;78;22186;-81
2021/05/11 00:51:38;;;;;;;2.98;2.02;;;;;;;14.89;51.32;96300.04;1787013;77;28331;-81
2021/05/11 00:54:11;;;;;;;2.47;1.70;;;;;;;15.00;50.99;96300.69;1820649;78;22256;-81
2021/05/11 00:56:48;;;;;;;2.90;1.85;;;;;;;15.14;50.81;96302.71;1830248;77;28310;-81
2021/05/11 00:59:29;;;;;;;3.47;1.90;;;;;;;15.36;50.49;96299.22;1829340;76;28142;-81
2021/05/11 01:02:07;;;;;;;2.37;2.10;;;;;;;15.66;50.32;96292.06;1821772;77;22414;-81
2021/05/11 01:04:40;;;;;;;1.47;1.37;;;;;;;15.82;49.13;96273.97;1820473;78;22744;-81
2021/05/11 01:07:18;;;;;;;2.95;1.80;;;;;;;16.11;48.38;96291.31;1829548;77;28134;-81
2021/05/11 01:09:56;;;;;;;2.30;1.70;;;;;;;16.49;47.58;96278.75;1830302;77;22674;-81
2021/05/11 01:12:33;;;;;;;3.45;1.50;;;;;;;16.74;47.30;96265.52;1775148;79;22496;-81
2021/05/11 01:15:10;;;;;;;2.77;1.90;;;;;;;16.81;47.93;96270.70;1819808;77;28005;-81
2021/05/11 01:17:53;;;;;;;3.05;1.30;;;;;;;16.86;46.67;96267.39;1822769;79;22939;-81
2021/05/11 01:25:47;;;;;;;1.82;1.55;;;;;;;17.36;45.29;96259.97;1814138;79;22247;-81
2021/05/11 02:22:42;;;;;;;2.35;1.62;;;;;;;17.46;44.46;96174.05;1812739;78;22244;-81
2021/05/11 02:25:16;;;;;;;2.52;1.40;;;;;;;17.47;44.61;96174.33;1824249;77;22504;-81
2021/05/11 02:27:52;;;;;;;2.30;1.65;;;;;;;17.51;44.60;96170.20;1770724;79;22554;-81
2021/05/11 02:30:29;;;;;;;2.67;1.35;;;;;;;17.57;44.44;96158.77;1826607;77;22466;-81
2021/05/11 02:33:05;;;;;;;3.58;1.60;;;;;;;17.64;44.22;96160.26;1806285;78;28427;-81
2021/05/11 02:35:42;;;;;;;3.37;1.92;;;;;;;17.78;43.90;96154.27;1779050;79;28105;-81
2021/05/11 02:38:18;;;;;;;4.92;2.30;;;;;;;17.99;43.61;96159.41;1816934;78;22522;-81
2021/05/11 02:40:52;;;;;;;2.98;1.50;;;;;;;18.09;43.68;96145.16;1762458;79;22621;-81
2021/05/11 02:43:30;;;;;;;2.30;1.98;;;;;;;18.16;43.32;96137.11;1790675;78;23110;-81
2021/05/11 02:46:04;;;;;;;2.58;1.85;;;;;;;18.22;43.20;96150.63;1761853;79;22219;-81
2021/05/11 02:48:37;;;;;;;2.47;1.40;;;;;;;18.23;43.29;96133.84;1756379;79;22453;-81
2021/05/11 02:51:14;;;;;;;4.22;1.77;;;;;;;18.22;43.31;96144.05;1786328;77;28141;-81
2021/05/11 02:53:51;;;;;;;4.00;2.00;;;;;;;18.26;43.00;96146.52;1780880;79;22591;-81
2021/05/11 02:56:26;;;;;;;3.70;1.85;;;;;;;18.27;42.96;96127.86;1822933;78;22505;-81
2021/05/11 02:59:03;;;;;;;3.40;1.80;;;;;;;18.26;43.00;96128.90;1776372;77;28126;-81
2021/05/11 03:01:37;;;;;;;4.15;1.50;;;;;;;18.28;43.48;96127.34;1827988;75;22424;-81
2021/05/11 03:04:13;;;;;;;3.22;2.15;;;;;;;18.22;43.19;96133.53;1803914;79;38327;-81
2021/05/11 03:06:51;;;;;;;2.83;1.57;;;;;;;18.35;42.73;96116.67;1779216;79;22288;-81
2021/05/11 03:09:27;;;;;;;1.95;1.50;;;;;;;18.39;42.79;96138.86;1833668;77;22643;-82
2021/05/11 03:12:06;;;;;;;5.15;1.72;;;;;;;18.35;43.35;96127.19;1841538;77;22889;-81
2021/05/11 03:14:43;;;;;;;2.12;1.57;;;;;;;18.27;43.21;96111.29;1819675;78;22443;-81
2021/05/11 03:17:18;;;;;;;3.08;1.50;;;;;;;18.23;43.97;96120.17;1829569;77;22515;-81
2021/05/11 03:19:52;;;;;;;3.05;1.50;;;;;;;18.15;43.12;96111.84;1759678;79;22722;-82
2021/05/11 03:22:33;;;;;;;7.10;1.77;;;;;;;18.23;43.27;96112.80;1844938;77;22197;-81
2021/05/11 03:25:13;;;;;;;2.72;1.55;;;;;;;18.25;43.13;96118.10;1817491;78;22334;-81
2021/05/11 03:27:48;;;;;;;2.22;1.60;;;;;;;18.34;43.13;96118.50;1782582;79;23126;-83
2021/05/11 03:30:23;;;;;;;3.17;1.60;;;;;;;18.40;42.67;96118.09;1821869;77;23005;-83
2021/05/11 03:32:56;;;;;;;2.35;1.60;;;;;;;18.43;43.18;96126.30;1831330;77;22249;-82
2021/05/11 03:35:33;;;;;;;2.55;1.70;;;;;;;18.48;42.57;96129.53;1802293;77;28045;-83
2021/05/11 03:38:10;;;;;;;3.20;1.80;;;;;;;18.63;42.40;96128.50;1757797;79;28065;-83
2021/05/11 03:40:47;;;;;;;2.60;1.70;;;;;;;18.75;42.04;96113.44;1802566;77;22483;-83
2021/05/11 03:43:27;;;;;;;1.85;1.27;;;;;;;18.79;42.35;96107.17;1801157;77;22417;-83
2021/05/11 03:46:06;;;;;;;2.33;1.57;;;;;;;18.76;42.09;96115.03;1803951;77;22327;-83
2021/05/11 03:48:39;;;;;;;3.45;1.90;;;;;;;18.73;42.38;96126.56;1777261;79;22556;-83
2021/05/11 03:51:17;;;;;;;3.50;1.60;;;;;;;18.73;42.15;96124.73;1836877;76;21737;-83
2021/05/11 03:53:54;;;;;;;4.97;1.50;;;;;;;18.72;42.07;96102.08;1824926;77;22568;-83
2021/05/11 03:56:36;;;;;;;2.55;1.40;;;;;;;18.79;41.96;96107.17;1811495;79;22832;-83
2021/05/11 03:59:13;;;;;;;4.33;2.37;;;;;;;18.82;41.89;96104.85;1828907;77;28308;-83
2021/05/11 04:01:48;;;;;;;2.87;1.55;;;;;;;18.91;41.71;96095.25;1825435;77;22700;-83
2021/05/11 04:04:25;;;;;;;3.05;1.60;;;;;;;18.95;41.92;96112.95;1802468;79;27919;-83
2021/05/11 04:07:06;;;;;;;2.20;1.50;;;;;;;19.01;41.91;96111.17;1742052;79;38677;-83
2021/05/11 04:09:51;;;;;;;3.95;1.47;;;;;;;19.06;41.41;96094.95;1780199;79;22856;-83
2021/05/11 04:18:14;;;;;;;4.15;1.77;;;;;;;19.09;41.19;96104.20;1779885;79;22272;-83
2021/05/11 04:20:48;;;;;;;3.05;1.52;;;;;;;19.12;41.31;96095.29;1782367;79;22503;-83
2021/05/11 04:23:25;;;;;;;3.02;1.30;;;;;;;19.14;41.54;96095.05;1795689;79;22198;-82
2021/05/11 04:26:02;;;;;;;2.72;1.60;;;;;;;19.17;41.45;96122.20;1807294;77;21427;-83
2021/05/11 04:28:38;;;;;;;2.67;1.50;;;;;;;19.17;41.44;96094.55;1745017;79;29065;-82
2021/05/11 04:31:12;;;;;;;1.82;1.60;;;;;;;19.22;41.33;96086.74;1771954;79;22443;-83
2021/05/11 04:33:46;;;;;;;2.27;1.35;;;;;;;19.22;41.27;96079.36;1761509;79;23081;-83
2021/05/11 04:36:25;;;;;;;3.95;1.80;;;;;;;19.23;41.52;96091.48;1840893;77;22933;-82
2021/05/11 04:39:00;;;;;;;2.65;1.98;;;;;;;19.27;41.19;96076.78;1820053;79;22923;-83
2021/05/11 04:41:37;;;;;;;3.25;1.75;;;;;;;19.31;41.28;96084.47;1791997;77;28085;-83
2021/05/11 04:44:16;;;;;;;2.42;1.60;;;;;;;19.38;41.10;96093.02;1782854;77;28359;-83
2021/05/11 04:46:58;;;;;;;2.75;1.52;;;;;;;19.49;40.81;96090.23;1790436;78;22538;-84
2021/05/11 04:49:29;;;;;;;3.22;1.80;;;;;;;19.56;40.71;96088.79;1799122;79;22736;-83
2021/05/11 04:52:06;;;;;;;3.15;1.60;;;;;;;19.58;40.88;96080.11;1752460;79;22430;-83
2021/05/11 04:54:40;;;;;;;1.82;1.30;;;;;;;19.60;40.63;96090.41;1781131;79;22284;-83
2021/05/11 04:57:23;;;;;;;2.02;1.55;;;;;;;19.62;40.36;96089.11;1814723;78;22465;-83
2021/05/11 05:00:02;;;;;;;2.67;1.30;;;;;;;19.66;40.23;96082.30;1801688;79;22347;-83
2021/05/11 05:02:42;;;;;;;2.15;1.27;;;;;;;19.70;40.47;96086.06;1836009;77;22509;-83
2021/05/11 05:05:19;;;;;;;4.45;1.20;;;;;;;19.72;40.50;96080.55;1781606;79;22663;-83
2021/05/11 05:07:54;;;;;;;3.05;1.52;;;;;;;19.72;40.64;96076.59;1813075;77;22487;-83
2021/05/11 05:10:28;;;;;;;4.05;1.50;;;;;;;19.74;40.23;96059.48;1820636;77;22338;-83
2021/05/11 05:13:06;;;;;;;4.30;1.55;;;;;;;19.83;40.60;96065.61;1797550;78;22932;-83
2021/05/11 05:15:40;;;;;;;2.20;1.10;;;;;;;19.85;40.02;96069.63;1812160;77;22390;-83
2021/05/11 05:18:13;;;;;;;2.98;1.15;;;;;;;19.91;40.02;96057.28;1798809;78;22182;-83
2021/05/11 05:20:50;;;;;;;3.35;1.45;;;;;;;19.98;39.83;96059.98;1771048;79;22430;-83
2021/05/11 05:26:07;;;;;;;3.77;1.47;;;;;;;20.06;39.91;96062.70;1782833;79;23258;-82
2021/05/11 05:28:43;;;;;;;2.12;1.50;;;;;;;20.10;39.63;96054.56;1828899;76;22970;-83
2021/05/11 05:31:20;;;;;;;1.50;1.30;;;;;;;20.17;39.14;96056.98;1771125;79;23168;-83
2021/05/11 05:33:57;;;;;;;3.72;1.60;;;;;;;20.22;39.54;96046.50;1781278;77;27965;-83
2021/05/11 05:36:34;;;;;;;3.55;1.25;;;;;;;20.32;39.50;96059.24;1821768;79;22732;-83
2021/05/11 05:39:11;;;;;;;3.27;1.80;;;;;;;20.37;39.10;96066.43;1780996;77;28218;-83
2021/05/11 05:41:45;;;;;;;2.30;1.52;;;;;;;20.48;39.39;96058.08;1812740;79;22534;-83
2021/05/11 05:44:21;;;;;;;2.33;1.60;;;;;;;20.51;39.04;96067.64;1783489;77;28158;-83
2021/05/11 05:46:58;;;;;;;2.62;1.52;;;;;;;20.61;39.04;96043.94;1798017;77;48458;-83
2021/05/11 05:49:44;;;;;;;2.12;1.47;;;;;;;20.74;38.59;96057.23;1803013;78;22882;-83
2021/05/11 05:52:20;;;;;;;2.27;1.15;;;;;;;20.77;38.51;96050.12;1799604;77;22166;-83
2021/05/11 05:55:03;;;;;;;2.30;1.15;;;;;;;20.85;39.02;96054.16;1799566;78;22340;-83
2021/05/11 05:57:38;;;;;;;2.90;1.45;;;;;;;20.88;39.11;96041.76;1796153;79;28140;-83
2021/05/11 06:00:17;;;;;;;2.83;1.20;;;;;;;20.98;38.47;96059.77;1762073;79;22445;-83
2021/05/11 06:02:55;;;;;;;2.12;1.22;;;;;;;21.05;38.54;96034.98;1815463;78;22940;-83
2021/05/11 06:05:32;;;;;;;4.80;1.80;;;;;;;21.09;38.45;96043.98;1833966;77;22490;-83
2021/05/11 06:08:09;;;;;;;2.80;1.47;;;;;;;21.15;38.89;96038.48;1768337;79;22519;-83
2021/05/11 06:10:45;;;;;;;4.78;1.70;;;;;;;21.21;38.70;96049.34;1825887;77;23292;-83
2021/05/11 06:13:27;;;;;;;2.55;1.40;;;;;;;21.28;38.07;96052.56;1792067;79;28338;-83
2021/05/11 06:18:55;;;;;;;4.55;1.62;;;;;;;21.53;37.94;96050.57;1814479;77;22963;-83
2021/05/11 06:21:28;;;;;;;3.40;1.20;;;;;;;21.61;37.77;96048.47;1764535;79;22597;-84
2021/05/11 06:24:05;;;;;;;2.52;1.32;;;;;;;21.70;37.80;96045.61;1823515;77;22249;-83
2021/05/11 06:26:43;;;;;;;2.65;1.30;;;;;;;21.78;37.59;96031.86;1766380;79;22653;-84
2021/05/11 06:29:19;;;;;;;2.10;1.17;;;;;;;21.84;37.44;96018.94;1791863;77;23019;-83
2021/05/11 06:31:55;;;;;;;3.15;1.30;;;;;;;21.94;37.14;96014.97;1766872;79;22080;-84
2021/05/11 06:34:32;;;;;;;3.83;1.60;;;;;;;22.02;37.46;96044.10;1799680;77;28026;-83
2021/05/11 06:37:09;;;;;;;3.85;1.62;;;;;;;22.14;37.35;96046.01;1780790;79;22020;-84
2021/05/11 06:39:49;;;;;;;1.70;1.50;;;;;;;22.23;36.40;96030.39;1778454;77;27883;-83
2021/05/11 06:42:29;;;;;;;1.82;1.30;;;;;;;22.32;36.77;96048.67;1768742;79;22320;-83
2021/05/11 06:48:00;;;;;;;2.95;1.52;;;;;;;22.42;36.47;96021.66;1767711;79;22119;-84
2021/05/11 06:50:36;;;;;;;3.30;1.47;;;;;;;22.49;36.10;96017.97;1777064;79;22477;-83
2021/05/11 06:53:13;;;;;;;3.02;1.40;;;;;;;22.56;36.22;96035.69;1815565;78;22473;-84
2021/05/11 06:55:52;;;;;;;2.42;1.50;;;;;;;22.62;36.39;96039.94;1753647;79;22456;-84
2021/05/11 06:58:28;;;;;;;2.42;1.10;;;;;;;22.65;36.14;96013.72;1809786;79;22446;-84
2021/05/11 07:01:05;;;;;;;2.55;1.50;;;;;;;22.71;36.34;96033.03;1812313;77;28046;-83
2021/05/11 07:03:42;;;;;;;3.15;1.72;;;;;;;22.85;36.71;96028.81;1781486;77;27980;-83
2021/05/11 07:06:18;;;;;;;2.85;1.20;;;;;;;23.01;36.58;96030.90;1799942;78;22914;-84
2021/05/11 07:09:03;;;;;;;1.25;1.00;;;;;;;23.10;35.90;96024.50;1757407;79;22273;-84
2021/05/11 07:14:16;;;;;;;2.05;1.40;;;;;;;23.15;35.80;96027.95;1798603;79;22396;-84
2021/05/11 07:16:54;;;;;;;4.25;1.75;;;;;;;23.21;36.29;96040.11;1798646;78;23049;-84
2021/05/11 07:19:31;;;;;;;2.60;1.50;;;;;;;23.26;36.03;96022.86;1764310;79;22701;-84
2021/05/11 07:22:07;;;;;;;2.98;1.40;;;;;;;23.32;35.92;96024.98;1780504;77;28022;-84
2021/05/11 07:24:50;;;;;;;2.25;1.50;;;;;;;23.44;35.71;96029.45;1844272;76;22381;-84
2021/05/11 07:30:13;;;;;;;2.55;1.22;;;;;;;23.58;36.45;96034.42;1806915;78;22452;-83
2021/05/11 07:32:50;;;;;;;2.05;1.20;;;;;;;23.63;36.23;96031.77;1816817;77;22599;-84
2021/05/11 07:35:27;;;;;;;2.62;1.40;;;;;;;23.70;35.67;96025.37;1804137;77;21972;-83
2021/05/11 07:38:04;;;;;;;3.33;1.45;;;;;;;23.77;36.20;96029.32;1781402;78;28092;-84
2021/05/11 07:40:40;;;;;;;3.62;1.62;;;;;;;23.92;36.04;96009.34;1803638;77;22175;-84
2021/05/11 07:43:17;;;;;;;3.08;1.30;;;;;;;24.00;35.67;96016.44;1834109;76;28077;-84
2021/05/11 08:16:58;;;;;;;3.90;1.40;;;;;;;25.43;34.08;96028.20;1824054;77;22252;-84
2021/05/11 08:28:12;;;;;;;3.85;1.15;;;;;;;25.95;34.34;96032.34;1768887;79;22197;-83
2021/05/11 08:30:48;;;;;;;3.02;1.60;;;;;;;26.03;35.31;96027.69;1800002;77;28278;-83
2021/05/11 08:33:24;;;;;;;3.45;1.62;;;;;;;26.22;34.05;96026.38;1823366;77;28231;-84
2021/05/11 08:36:01;;;;;;;1.40;1.15;;;;;;;26.39;33.65;96030.67;1760083;79;23235;-84
2021/05/11 08:38:37;;;;;;;3.22;1.35;;;;;;;26.45;33.23;96032.16;1770021;79;22456;-82
2021/05/11 08:41:14;;;;;;;2.60;1.40;;;;;;;26.59;33.61;96038.87;1779360;77;28371;-84
2021/05/11 08:43:51;;;;;;;4.05;1.27;;;;;;;26.88;33.93;96031.98;1820133;79;22616;-84
2021/05/11 08:46:24;;;;;;;2.47;1.12;;;;;;;27.00;33.06;96048.30;1820358;77;23030;-82
2021/05/11 08:49:04;;;;;;;3.05;1.35;;;;;;;27.08;33.21;96041.52;1780519;77;28008;-84
2021/05/11 09:06:26;;;;;;;5.53;1.80;;;;;;;27.51;32.96;96041.48;1757362;79;22571;-84
2021/05/11 09:23:36;;;;;;;1.55;1.00;;;;;;;27.64;31.08;96084.48;1819694;78;22843;-84
2021/05/11 09:26:14;;;;;;;1.50;1.00;;;;;;;27.67;31.13;96083.91;1819742;78;22478;-84
2021/05/11 09:28:52;;;;;;;4.10;1.27;;;;;;;27.61;30.52;96075.70;1760058;79;22435;-84
2021/05/11 09:52:02;;;;;;;3.27;1.27;;;;;;;27.94;31.29;96067.84;1817046;78;22887;-84
2021/05/11 09:57:05;;;;;;;3.37;1.40;;;;;;;28.10;31.50;96069.09;1805065;78;22325;-84
2021/05/11 10:48:37;;;;;;;1.67;1.15;;;;;;;28.67;30.91;96047.23;1781732;79;22856;-83
2021/05/11 10:51:18;;;;;;;2.65;1.12;;;;;;;28.74;30.66;96054.27;1790239;78;23035;-83
2021/05/11 10:54:04;;;;;;;2.12;1.22;;;;;;;28.78;30.22;96065.13;1763008;79;22692;-83
2021/05/11 10:56:43;;;;;;;3.17;1.75;;;;;;;28.74;29.96;96046.25;1799808;78;23266;-83
2021/05/11 10:59:43;;;;;;;3.15;1.30;;;;;;;28.75;30.77;96046.48;1799763;77;22608;-83
2021/05/11 11:02:35;;;;;;;2.17;1.00;;;;;;;28.76;30.20;96041.38;1764789;79;22877;-83
2021/05/11 11:05:04;;;;;;;2.60;1.30;;;;;;;28.79;30.39;96052.01;1783859;78;22412;-82
2021/05/11 11:07:42;;;;;;;2.35;1.22;;;;;;;28.81;30.52;96057.31;1821468;77;22115;-82
2021/05/11 11:10:19;;;;;;;4.42;1.20;;;;;;;28.86;29.89;96048.37;1797442;78;23029;-82
2021/05/11 11:12:56;;;;;;;2.75;1.40;;;;;;;28.86;29.38;96038.49;1808245;77;27958;-82
2021/05/11 11:15:30;;;;;;;1.95;1.10;;;;;;;28.98;29.46;96036.59;1790230;79;23254;-83
2021/05/11 11:18:07;;;;;;;2.42;1.40;;;;;;;28.99;29.90;96036.28;1781740;79;27968;-83
2021/05/11 11:20:45;;;;;;;2.15;1.37;;;;;;;29.10;30.58;96030.65;1811864;78;22522;-82
2021/05/11 11:23:33;;;;;;;3.42;1.37;;;;;;;29.15;29.41;96035.33;1781934;79;22829;-80
2021/05/11 11:26:12;;;;;;;2.08;1.10;;;;;;;29.16;29.78;96036.13;1784465;78;22431;-81
2021/05/11 11:28:48;;;;;;;2.90;1.27;;;;;;;29.15;28.95;96033.20;1817282;77;22563;-83
2021/05/11 11:31:28;;;;;;;2.90;1.72;;;;;;;29.13;28.71;96042.88;1813933;77;22185;-83
2021/05/11 11:34:36;;;;;;;2.47;1.07;;;;;;;29.12;28.44;96031.13;1761382;79;22468;-81
2021/05/11 11:37:15;;;;;;;2.70;1.70;;;;;;;29.11;29.10;96031.67;1813973;77;28187;-82
2021/05/11 11:39:52;;;;;;;4.12;2.95;;;;;;;29.20;28.28;96031.72;1815637;77;22452;-83
2021/05/11 11:42:37;;;;;;;3.40;1.40;;;;;;;29.21;29.48;96028.73;1779700;79;22984;-83
2021/05/11 11:45:27;;;;;;;1.90;1.12;;;;;;;29.21;29.26;96030.63;1762111;79;22572;-80
2021/05/11 11:48:04;;;;;;;4.33;3.10;;;;;;;29.20;28.34;96029.84;1778349;79;22506;-83
2021/05/11 11:50:41;;;;;;;4.50;3.10;;;;;;;29.18;28.70;96014.64;1817313;77;22298;-83
2021/05/11 11:53:23;;;;;;;4.58;2.83;;;;;;;29.21;28.89;96018.59;1790729;79;22321;-81
2021/05/11 11:58:42;;;;;;;7.60;4.15;;;;;;;29.27;29.78;96015.45;1841444;77;22323;-83
2021/05/11 12:01:18;;;;;;;3.12;1.30;;;;;;;29.29;29.55;96004.46;1815348;76;38369;-83
2021/05/11 12:03:57;;;;;;;2.25;1.10;;;;;;;29.42;28.34;96008.09;1775904;79;22065;-83
2021/05/11 12:06:37;;;;;;;1.72;1.17;;;;;;;29.43;28.08;96017.15;1777535;79;22643;-83
2021/05/11 12:09:13;;;;;;;2.60;1.70;;;;;;;29.42;27.78;96000.06;1834830;77;22534;-83
2021/05/11 12:11:48;;;;;;;2.35;1.10;;;;;;;29.42;28.10;96005.42;1755823;79;22450;-83
2021/05/11 12:14:25;;;;;;;4.28;2.30;;;;;;;29.39;27.16;95995.34;1835163;77;22159;-83
2021/05/11 12:17:01;;;;;;;3.42;1.47;;;;;;;29.34;27.78;95993.61;1822470;76;28222;-81
2021/05/11 12:19:43;;;;;;;3.50;1.35;;;;;;;29.44;28.48;95984.48;1802960;79;27961;-83
2021/05/11 12:22:17;;;;;;;14.60;6.83;;;;;;;29.60;28.83;95980.30;1795433;77;22465;-82
2021/05/11 12:24:53;;;;;;;9.55;4.37;;;;;;;29.59;28.22;95974.70;1765100;79;22567;-83
2021/05/11 12:27:30;;;;;;;2.83;1.50;;;;;;;29.58;28.63;95976.59;1759371;79;22927;-81
2021/05/11 12:30:09;;;;;;;4.58;1.95;;;;;;;29.60;27.80;95978.95;1767233;79;23108;-84
2021/05/11 12:32:46;;;;;;;14.23;7.80;;;;;;;29.67;26.98;95975.83;1807727;77;22835;-85
2021/05/11 12:35:22;;;;;;;5.80;3.10;;;;;;;29.63;28.47;95967.64;1802882;77;38284;-84
2021/05/11 12:38:05;;;;;;;3.45;1.50;;;;;;;29.72;27.24;95975.67;1812583;77;22151;-84
2021/05/11 12:43:44;;;;;;;2.65;1.92;;;;;;;29.69;26.25;95957.01;1816794;78;23203;-82
2021/05/11 12:46:28;;;;;;;12.23;5.97;;;;;;;29.73;27.27;95956.61;1779812;79;22338;-84
2021/05/11 12:49:18;;;;;;;3.67;1.72;;;;;;;29.77;28.53;95955.42;1752714;79;22454;-84
2021/05/11 12:51:56;;;;;;;4.20;2.50;;;;;;;29.78;27.27;95951.67;1820276;77;23014;-84
2021/05/11 12:54:35;;;;;;;2.85;1.50;;;;;;;29.78;27.30;95955.14;1773152;79;22670;-85
2021/05/11 12:57:23;;;;;;;2.80;1.40;;;;;;;29.80;26.91;95950.80;1822816;77;22264;-84
2021/05/11 13:00:03;;;;;;;4.05;1.10;;;;;;;29.83;27.34;95944.27;1811245;78;22524;-85
2021/05/11 13:14:44;;;;;;;3.83;2.02;;;;;;;30.06;27.16;95924.81;1819231;78;22549;-82
2021/05/11 13:33:09;;;;;;;2.05;1.22;;;;;;;30.02;26.54;95909.66;1821327;77;22526;-82
2021/05/11 13:35:34;;;;;;;2.50;1.20;;;;;;;30.06;25.51;95905.27;1764065;79;23128;-84
2021/05/11 13:38:10;;;;;;;3.15;1.22;;;;;;;30.00;25.84;95909.20;1753241;79;22999;-84
2021/05/11 13:40:47;;;;;;;5.45;1.77;;;;;;;29.91;25.27;95895.02;1816772;77;28062;-84
2021/05/11 13:43:23;;;;;;;3.08;1.52;;;;;;;29.97;26.26;95890.53;1782508;77;27916;-85
2021/05/11 13:45:59;;;;;;;3.12;1.30;;;;;;;30.11;26.49;95890.39;1767724;79;22454;-82
2021/05/11 13:48:38;;;;;;;3.47;1.50;;;;;;;30.11;25.69;95900.55;1797226;77;21230;-82
2021/05/11 13:51:17;;;;;;;6.03;2.25;;;;;;;30.09;25.06;95888.00;1767878;79;22257;-84
2021/05/11 13:53:56;;;;;;;2.75;1.30;;;;;;;30.09;25.89;95877.28;1758546;79;22565;-85
2021/05/11 14:04:44;;;;;;;3.92;1.35;;;;;;;30.21;25.52;95853.86;1747193;79;28149;-84
2021/05/11 14:07:21;;;;;;;4.65;1.60;;;;;;;30.29;25.28;95858.42;1780222;77;28034;-84
2021/05/11 14:09:55;;;;;;;4.40;1.22;;;;;;;30.38;24.63;95856.48;1807175;78;22766;-82
2021/05/11 14:12:31;;;;;;;2.80;1.32;;;;;;;30.36;24.99;95850.66;1844962;76;22218;-84
2021/05/11 14:15:10;;;;;;;2.72;1.47;;;;;;;30.33;24.91;95853.20;1806151;77;22183;-84
2021/05/11 14:17:46;;;;;;;3.55;1.30;;;;;;;30.30;25.08;95854.63;1823666;77;22050;-82
2021/05/11 14:20:22;;;;;;;4.65;2.08;;;;;;;30.35;25.61;95838.92;1799593;77;28014;-84
2021/05/11 14:22:59;;;;;;;5.78;3.47;;;;;;;30.46;26.25;95836.92;1788547;77;27991;-84
2021/05/11 14:25:35;;;;;;;2.95;1.30;;;;;;;30.56;26.16;95834.97;1828877;76;28232;-84
2021/05/11 14:28:10;;;;;;;3.33;1.07;;;;;;;30.58;24.90;95835.42;1821163;78;22826;-82
2021/05/11 14:30:48;;;;;;;2.90;1.30;;;;;;;30.43;24.49;95835.44;1792329;77;22186;-81
2021/05/11 14:33:25;;;;;;;2.25;1.10;;;;;;;30.32;25.01;95827.52;1840091;77;22310;-83
2021/05/11 14:36:01;;;;;;;4.50;1.25;;;;;;;30.32;24.98;95823.49;1819689;76;22292;-83
2021/05/11 14:38:37;;;;;;;8.18;2.70;;;;;;;30.30;25.01;95817.67;1820179;78;22574;-81
2021/05/11 14:41:15;;;;;;;4.92;1.77;;;;;;;30.25;25.02;95821.84;1799325;77;27883;-83
2021/05/11 14:43:48;;;;;;;4.75;2.20;;;;;;;30.33;24.67;95822.38;1820481;79;22430;-83
2021/05/11 14:46:25;;;;;;;3.15;1.30;;;;;;;30.29;26.16;95823.58;1824568;77;28189;-83
2021/05/11 14:49:03;;;;;;;3.22;2.42;;;;;;;30.44;25.47;95824.95;1844587;76;22305;-83
2021/05/11 14:51:40;;;;;;;2.90;2.17;;;;;;;30.43;25.81;95820.70;1764906;79;22754;-80
2021/05/11 14:54:16;;;;;;;2.75;1.45;;;;;;;30.34;26.11;95816.70;1758509;79;22520;-83
2021/05/11 14:56:53;;;;;;;3.02;1.20;;;;;;;30.28;25.73;95815.31;1822289;78;22501;-83
2021/05/11 14:59:29;;;;;;;2.33;1.40;;;;;;;30.25;24.40;95813.25;1843923;76;22399;-83
2021/05/11 15:02:06;;;;;;;2.98;1.45;;;;;;;30.17;24.79;95812.74;1797958;77;28078;-83
2021/05/11 15:04:43;;;;;;;1.95;1.02;;;;;;;30.25;24.14;95819.16;1765041;79;22990;-81
2021/05/11 15:07:19;;;;;;;2.87;1.10;;;;;;;30.16;25.42;95809.83;1791174;78;22270;-83
2021/05/11 15:09:53;;;;;;;3.98;1.27;;;;;;;30.14;25.08;95806.69;1814130;78;23160;-83
2021/05/11 15:12:30;;;;;;;4.87;1.65;;;;;;;30.19;25.45;95807.84;1795344;78;28075;-83
2021/05/11 15:15:06;;;;;;;3.02;1.20;;;;;;;30.27;24.65;95804.92;1767292;79;22129;-83
2021/05/11 15:20:20;;;;;;;3.75;1.30;;;;;;;30.10;24.09;95802.53;1813927;77;21955;-82
2021/05/11 15:23:02;;;;;;;3.95;1.45;;;;;;;30.11;23.25;95793.94;1801583;78;22811;-80
2021/05/11 15:25:37;;;;;;;2.85;1.50;;;;;;;30.16;23.84;95804.47;1776080;79;22379;-81
2021/05/11 15:28:14;;;;;;;3.20;1.70;;;;;;;30.20;24.57;95798.70;1817061;77;22000;-83
2021/05/11 15:30:50;;;;;;;2.55;1.30;;;;;;;30.18;24.67;95808.95;1754973;79;22705;-83
2021/05/11 15:33:27;;;;;;;3.10;1.45;;;;;;;30.03;23.39;95798.17;1786936;79;27953;-83
2021/05/11 15:36:04;;;;;;;2.98;1.40;;;;;;;29.99;23.72;95799.14;1829681;76;28124;-82
2021/05/11 15:38:41;;;;;;;4.10;1.35;;;;;;;30.05;23.80;95797.88;1821141;77;22361;-83
2021/05/11 15:41:19;;;;;;;3.20;1.40;;;;;;;30.03;24.31;95792.03;1830267;76;28203;-81
2021/05/11 15:43:55;;;;;;;3.55;1.35;;;;;;;30.13;24.52;95795.19;1808324;78;22479;-83
2021/05/11 15:46:32;;;;;;;4.15;1.77;;;;;;;30.07;24.32;95793.77;1820161;77;22797;-83
2021/05/11 15:49:07;;;;;;;5.30;3.70;;;;;;;29.93;24.02;95790.47;1805114;78;28224;-83
2021/05/11 15:51:45;;;;;;;2.47;1.30;;;;;;;30.00;24.71;95795.36;1809462;79;21327;-82
2021/05/11 15:54:22;;;;;;;2.37;1.45;;;;;;;29.92;24.38;95786.78;1815835;78;22329;-83
2021/05/11 15:56:59;;;;;;;3.08;1.52;;;;;;;29.91;24.54;95781.98;1815964;77;22542;-83
2021/05/11 15:59:37;;;;;;;2.83;1.45;;;;;;;29.86;24.59;95781.60;1800344;79;28118;-83
2021/05/11 16:02:12;;;;;;;1.75;1.15;;;;;;;29.93;24.40;95777.63;1819738;79;22158;-83
2021/05/11 16:04:46;;;;;;;3.27;1.00;;;;;;;29.81;24.23;95779.11;1820886;77;22352;-83
2021/05/11 16:07:20;;;;;;;5.10;1.50;;;;;;;29.75;23.42;95779.02;1791404;77;22542;-81
2021/05/11 16:09:57;;;;;;;2.90;1.70;;;;;;;29.67;24.14;95773.15;1797087;79;28039;-81
2021/05/11 16:12:32;;;;;;;2.95;1.02;;;;;;;29.74;24.05;95773.98;1825115;77;22384;-83
2021/05/11 16:15:15;;;;;;;2.85;1.30;;;;;;;29.67;23.63;95775.83;1809292;78;22086;-81
2021/05/11 16:17:51;;;;;;;2.92;1.22;;;;;;;29.59;24.52;95773.38;1843816;77;22155;-81
2021/05/11 16:20:26;;;;;;;3.98;1.57;;;;;;;29.53;24.44;95775.22;1774382;79;22477;-83
2021/05/11 16:23:03;;;;;;;3.72;1.30;;;;;;;29.47;24.68;95768.46;1820551;76;27992;-83
2021/05/11 16:25:40;;;;;;;2.65;1.40;;;;;;;29.53;24.01;95773.33;1820167;77;22208;-82
2021/05/11 16:28:14;;;;;;;2.45;1.20;;;;;;;29.41;23.75;95773.70;1769740;79;22209;-83
2021/05/11 16:30:53;;;;;;;3.33;1.40;;;;;;;29.37;24.22;95774.09;1851524;76;38644;-83
2021/05/11 16:33:30;;;;;;;4.62;1.30;;;;;;;29.54;24.08;95768.76;1807710;78;22221;-83
2021/05/11 16:36:04;;;;;;;1.90;1.42;;;;;;;29.57;24.54;95767.56;1827841;76;22764;-83
2021/05/11 16:38:41;;;;;;;4.42;1.55;;;;;;;29.51;23.71;95762.16;1811662;79;21990;-81
2021/05/11 16:41:18;;;;;;;3.90;1.80;;;;;;;29.51;24.16;95774.75;1801085;79;22217;-83
2021/05/11 16:43:56;;;;;;;3.08;1.37;;;;;;;29.51;23.94;95778.77;1812159;79;22722;-81
2021/05/11 16:46:30;;;;;;;1.90;1.10;;;;;;;29.37;23.66;95775.44;1761803;79;22223;-83